sensor_id;sensor_type;location;lat;lon;timestamp;P1;durP1;ratioP1;P2;durP2;ratioP2
48613;SDS011;34408;51.426;5.444;2023-12-14T04:57:05;14.27;;;9.18;;
48613;SDS011;34408;51.426;5.444;2023-12-14T04:59:32;13.27;;;8.60;;
48613;SDS011;34408;51.426;5.444;2023-12-14T05:02:00;10.90;;;8.75;;
48613;SDS011;34408;51.426;5.444;2023-12-14T05:04:28;12.20;;;9.32;;
48613;SDS011;34408;51.426;5.444;2023-12-14T05:06:56;13.07;;;9.13;;
48613;SDS011;34408;51.426;5.444;2023-12-14T05:09:24;11.25;;;8.82;;
48613;SDS011;34408;51.426;5.444;2023-12-14T05:11:52;10.70;;;8.82;;
48613;SDS011;34408;51.426;5.444;2023-12-14T05:14:21;11.82;;;8.60;;
48613;SDS011;34408;51.426;5.444;2023-12-14T05:16:49;12.20;;;8.85;;
48613;SDS011;34408;51.426;5.444;2023-12-14T05:19:17;13.43;;;9.05;;
48613;SDS011;34408;51.426;5.444;2023-12-14T05:21:45;14.13;;;9.23;;
48613;SDS011;34408;51.426;5.444;2023-12-14T05:24:14;12.65;;;9.02;;
48613;SDS011;34408;51.426;5.444;2023-12-14T05:26:41;13.93;;;10.02;;
48613;SDS011;34408;51.426;5.444;2023-12-14T05:29:09;13.05;;;9.93;;
48613;SDS011;34408;51.426;5.444;2023-12-14T05:31:39;12.05;;;9.00;;
48613;SDS011;34408;51.426;5.444;2023-12-14T05:34:07;12.77;;;9.52;;
48613;SDS011;34408;51.426;5.444;2023-12-14T05:36:34;16.85;;;8.95;;
48613;SDS011;34408;51.426;5.444;2023-12-14T05:39:02;13.85;;;9.23;;
48613;SDS011;34408;51.426;5.444;2023-12-14T05:41:30;11.55;;;9.27;;
48613;SDS011;34408;51.426;5.444;2023-12-14T05:43:58;11.27;;;9.07;;
48613;SDS011;34408;51.426;5.444;2023-12-14T05:46:26;12.32;;;9.98;;
48613;SDS011;34408;51.426;5.444;2023-12-14T05:48:56;13.32;;;10.02;;
48613;SDS011;34408;51.426;5.444;2023-12-14T05:51:27;14.00;;;9.52;;
48613;SDS011;34408;51.426;5.444;2023-12-14T05:53:55;11.90;;;9.73;;
48613;SDS011;34408;51.426;5.444;2023-12-14T05:56:23;14.93;;;9.10;;
48613;SDS011;34408;51.426;5.444;2023-12-14T05:58:51;11.82;;;9.25;;
48613;SDS011;34408;51.426;5.444;2023-12-14T06:01:19;14.13;;;9.25;;
48613;SDS011;34408;51.426;5.444;2023-12-14T06:03:47;11.43;;;9.93;;
48613;SDS011;34408;51.426;5.444;2023-12-14T06:06:17;11.77;;;9.20;;
48613;SDS011;34408;51.426;5.444;2023-12-14T06:08:45;13.18;;;9.57;;
48613;SDS011;34408;51.426;5.444;2023-12-14T06:11:13;12.15;;;9.43;;
48613;SDS011;34408;51.426;5.444;2023-12-14T06:13:41;14.98;;;9.95;;
48613;SDS011;34408;51.426;5.444;2023-12-14T06:16:09;12.82;;;9.52;;
48613;SDS011;34408;51.426;5.444;2023-12-14T06:18:39;14.38;;;9.77;;
48613;SDS011;34408;51.426;5.444;2023-12-14T06:21:11;14.25;;;9.48;;
48613;SDS011;34408;51.426;5.444;2023-12-14T06:23:40;12.70;;;9.85;;
48613;SDS011;34408;51.426;5.444;2023-12-14T06:26:08;12.27;;;9.88;;
48613;SDS011;34408;51.426;5.444;2023-12-14T06:28:36;11.40;;;9.68;;
48613;SDS011;34408;51.426;5.444;2023-12-14T06:31:05;13.45;;;10.30;;
48613;SDS011;34408;51.426;5.444;2023-12-14T06:33:34;11.63;;;9.32;;
48613;SDS011;34408;51.426;5.444;2023-12-14T06:36:02;14.10;;;9.82;;
48613;SDS011;34408;51.426;5.444;2023-12-14T06:38:31;12.60;;;9.95;;
48613;SDS011;34408;51.426;5.444;2023-12-14T06:41:01;15.95;;;9.73;;
48613;SDS011;34408;51.426;5.444;2023-12-14T06:43:29;13.38;;;9.52;;
48613;SDS011;34408;51.426;5.444;2023-12-14T06:45:57;12.50;;;10.07;;
48613;SDS011;34408;51.426;5.444;2023-12-14T06:48:25;16.33;;;10.40;;
48613;SDS011;34408;51.426;5.444;2023-12-14T06:50:53;12.93;;;9.80;;
48613;SDS011;34408;51.426;5.444;2023-12-14T06:53:21;13.15;;;9.25;;
48613;SDS011;34408;51.426;5.444;2023-12-14T06:55:49;12.45;;;9.38;;
48613;SDS011;34408;51.426;5.444;2023-12-14T06:58:18;13.15;;;9.10;;
48613;SDS011;34408;51.426;5.444;2023-12-14T07:00:46;12.25;;;8.95;;
48613;SDS011;34408;51.426;5.444;2023-12-14T07:03:14;13.38;;;9.68;;
48613;SDS011;34408;51.426;5.444;2023-12-14T07:05:43;10.80;;;8.75;;
48613;SDS011;34408;51.426;5.444;2023-12-14T07:08:11;10.90;;;8.82;;
48613;SDS011;34408;51.426;5.444;2023-12-14T07:10:40;11.68;;;9.23;;
48613;SDS011;34408;51.426;5.444;2023-12-14T07:13:08;12.55;;;9.93;;
48613;SDS011;34408;51.426;5.444;2023-12-14T07:15:37;14.40;;;10.02;;
48613;SDS011;34408;51.426;5.444;2023-12-14T07:18:05;11.38;;;8.88;;
48613;SDS011;34408;51.426;5.444;2023-12-14T07:20:33;13.48;;;9.38;;
48613;SDS011;34408;51.426;5.444;2023-12-14T07:23:01;15.52;;;10.40;;
48613;SDS011;34408;51.426;5.444;2023-12-14T07:25:29;16.52;;;10.18;;
48613;SDS011;34408;51.426;5.444;2023-12-14T07:27:57;15.40;;;10.30;;
48613;SDS011;34408;51.426;5.444;2023-12-14T07:30:24;15.93;;;10.43;;
48613;SDS011;34408;51.426;5.444;2023-12-14T07:32:54;16.77;;;10.82;;
48613;SDS011;34408;51.426;5.444;2023-12-14T07:35:22;18.35;;;10.88;;
48613;SDS011;34408;51.426;5.444;2023-12-14T07:37:50;18.00;;;11.55;;
48613;SDS011;34408;51.426;5.444;2023-12-14T07:40:18;17.50;;;11.18;;
48613;SDS011;34408;51.426;5.444;2023-12-14T07:42:45;23.90;;;12.18;;
48613;SDS011;34408;51.426;5.444;2023-12-14T07:45:13;18.63;;;12.80;;
48613;SDS011;34408;51.426;5.444;2023-12-14T07:47:41;19.80;;;11.77;;
48613;SDS011;34408;51.426;5.444;2023-12-14T07:50:11;18.95;;;11.77;;
48613;SDS011;34408;51.426;5.444;2023-12-14T07:52:40;16.70;;;11.48;;
48613;SDS011;34408;51.426;5.444;2023-12-14T07:55:08;21.77;;;13.10;;
48613;SDS011;34408;51.426;5.444;2023-12-14T07:57:36;21.17;;;11.80;;
48613;SDS011;34408;51.426;5.444;2023-12-14T08:00:04;24.00;;;12.07;;
48613;SDS011;34408;51.426;5.444;2023-12-14T08:02:34;19.08;;;12.18;;
48613;SDS011;34408;51.426;5.444;2023-12-14T08:05:03;18.40;;;12.05;;
48613;SDS011;34408;51.426;5.444;2023-12-14T08:07:32;21.92;;;12.38;;
48613;SDS011;34408;51.426;5.444;2023-12-14T08:10:00;19.27;;;12.20;;
48613;SDS011;34408;51.426;5.444;2023-12-14T08:12:28;18.25;;;11.35;;
48613;SDS011;34408;51.426;5.444;2023-12-14T08:14:56;16.08;;;10.07;;
48613;SDS011;34408;51.426;5.444;2023-12-14T08:17:24;20.25;;;11.27;;
48613;SDS011;34408;51.426;5.444;2023-12-14T08:19:53;20.25;;;11.63;;
48613;SDS011;34408;51.426;5.444;2023-12-14T08:22:21;16.05;;;10.23;;
48613;SDS011;34408;51.426;5.444;2023-12-14T08:24:50;19.80;;;12.18;;
48613;SDS011;34408;51.426;5.444;2023-12-14T08:27:18;19.42;;;10.60;;
48613;SDS011;34408;51.426;5.444;2023-12-14T08:29:45;23.02;;;10.90;;
48613;SDS011;34408;51.426;5.444;2023-12-14T08:32:13;16.08;;;10.20;;
48613;SDS011;34408;51.426;5.444;2023-12-14T08:34:41;17.58;;;10.25;;
48613;SDS011;34408;51.426;5.444;2023-12-14T08:37:09;13.95;;;9.35;;
48613;SDS011;34408;51.426;5.444;2023-12-14T08:39:37;18.65;;;10.10;;
48613;SDS011;34408;51.426;5.444;2023-12-14T08:42:06;16.08;;;9.40;;
48613;SDS011;34408;51.426;5.444;2023-12-14T08:44:34;16.08;;;10.25;;
48613;SDS011;34408;51.426;5.444;2023-12-14T08:47:02;14.57;;;9.07;;
48613;SDS011;34408;51.426;5.444;2023-12-14T08:49:31;16.50;;;8.98;;
48613;SDS011;34408;51.426;5.444;2023-12-14T08:51:59;15.55;;;9.18;;
48613;SDS011;34408;51.426;5.444;2023-12-14T08:54:26;13.95;;;8.48;;
48613;SDS011;34408;51.426;5.444;2023-12-14T08:56:54;15.43;;;8.02;;
48613;SDS011;34408;51.426;5.444;2023-12-14T08:59:23;13.77;;;9.05;;
48613;SDS011;34408;51.426;5.444;2023-12-14T09:01:51;14.30;;;8.63;;
48613;SDS011;34408;51.426;5.444;2023-12-14T09:04:19;14.07;;;8.57;;
48613;SDS011;34408;51.426;5.444;2023-12-14T09:06:47;12.15;;;7.55;;
48613;SDS011;34408;51.426;5.444;2023-12-14T09:09:15;20.33;;;8.20;;
48613;SDS011;34408;51.426;5.444;2023-12-14T09:11:45;12.52;;;7.82;;
48613;SDS011;34408;51.426;5.444;2023-12-14T09:14:13;11.93;;;6.72;;
48613;SDS011;34408;51.426;5.444;2023-12-14T09:16:42;17.70;;;7.72;;
48613;SDS011;34408;51.426;5.444;2023-12-14T09:19:10;11.57;;;7.50;;
48613;SDS011;34408;51.426;5.444;2023-12-14T09:21:38;13.13;;;7.55;;
48613;SDS011;34408;51.426;5.444;2023-12-14T09:24:12;13.68;;;7.65;;
48613;SDS011;34408;51.426;5.444;2023-12-14T09:26:40;11.55;;;7.22;;
48613;SDS011;34408;51.426;5.444;2023-12-14T09:29:08;11.13;;;7.85;;
48613;SDS011;34408;51.426;5.444;2023-12-14T09:31:36;10.55;;;6.90;;
48613;SDS011;34408;51.426;5.444;2023-12-14T09:34:05;10.73;;;7.13;;
48613;SDS011;34408;51.426;5.444;2023-12-14T09:36:33;12.70;;;7.45;;
48613;SDS011;34408;51.426;5.444;2023-12-14T09:39:01;10.07;;;6.80;;
48613;SDS011;34408;51.426;5.444;2023-12-14T09:41:29;10.52;;;7.25;;
48613;SDS011;34408;51.426;5.444;2023-12-14T09:43:57;10.20;;;5.75;;
48613;SDS011;34408;51.426;5.444;2023-12-14T09:46:26;9.10;;;6.65;;
48613;SDS011;34408;51.426;5.444;2023-12-14T09:48:54;10.32;;;6.55;;
48613;SDS011;34408;51.426;5.444;2023-12-14T09:51:26;8.95;;;6.40;;
48613;SDS011;34408;51.426;5.444;2023-12-14T09:53:54;10.30;;;6.65;;
48613;SDS011;34408;51.426;5.444;2023-12-14T09:56:24;12.95;;;7.25;;
48613;SDS011;34408;51.426;5.444;2023-12-14T09:58:52;9.40;;;7.38;;
48613;SDS011;34408;51.426;5.444;2023-12-14T10:01:21;9.88;;;6.63;;
48613;SDS011;34408;51.426;5.444;2023-12-14T10:03:50;10.45;;;6.07;;
48613;SDS011;34408;51.426;5.444;2023-12-14T10:06:37;9.70;;;6.53;;
48613;SDS011;34408;51.426;5.444;2023-12-14T10:09:05;11.85;;;6.22;;
48613;SDS011;34408;51.426;5.444;2023-12-14T10:11:35;11.48;;;6.13;;
48613;SDS011;34408;51.426;5.444;2023-12-14T10:14:06;10.63;;;6.38;;
48613;SDS011;34408;51.426;5.444;2023-12-14T10:16:45;10.98;;;6.03;;
48613;SDS011;34408;51.426;5.444;2023-12-14T10:19:13;9.80;;;6.35;;
48613;SDS011;34408;51.426;5.444;2023-12-14T10:21:42;9.48;;;7.07;;
48613;SDS011;34408;51.426;5.444;2023-12-14T10:24:10;9.52;;;6.13;;
48613;SDS011;34408;51.426;5.444;2023-12-14T10:26:40;9.32;;;6.07;;
48613;SDS011;34408;51.426;5.444;2023-12-14T10:29:08;9.52;;;6.07;;
48613;SDS011;34408;51.426;5.444;2023-12-14T10:31:36;8.98;;;5.82;;
48613;SDS011;34408;51.426;5.444;2023-12-14T10:34:04;9.27;;;5.82;;
48613;SDS011;34408;51.426;5.444;2023-12-14T10:36:32;9.00;;;6.47;;
48613;SDS011;34408;51.426;5.444;2023-12-14T10:39:02;8.88;;;6.60;;
48613;SDS011;34408;51.426;5.444;2023-12-14T10:41:31;9.13;;;6.65;;
48613;SDS011;34408;51.426;5.444;2023-12-14T10:44:01;10.48;;;5.60;;
48613;SDS011;34408;51.426;5.444;2023-12-14T10:46:49;9.80;;;5.47;;
48613;SDS011;34408;51.426;5.444;2023-12-14T10:49:22;8.32;;;6.18;;
48613;SDS011;34408;51.426;5.444;2023-12-14T10:51:52;8.45;;;5.88;;
48613;SDS011;34408;51.426;5.444;2023-12-14T10:54:23;11.73;;;6.93;;
48613;SDS011;34408;51.426;5.444;2023-12-14T10:56:54;11.05;;;6.28;;
48613;SDS011;34408;51.426;5.444;2023-12-14T10:59:23;9.98;;;6.40;;
48613;SDS011;34408;51.426;5.444;2023-12-14T11:01:52;9.88;;;6.47;;
48613;SDS011;34408;51.426;5.444;2023-12-14T11:04:20;12.90;;;6.35;;
48613;SDS011;34408;51.426;5.444;2023-12-14T11:06:49;10.13;;;6.97;;
48613;SDS011;34408;51.426;5.444;2023-12-14T11:09:17;12.10;;;6.90;;
48613;SDS011;34408;51.426;5.444;2023-12-14T11:11:56;10.80;;;6.63;;
48613;SDS011;34408;51.426;5.444;2023-12-14T11:14:26;10.20;;;6.97;;
48613;SDS011;34408;51.426;5.444;2023-12-14T11:16:55;12.05;;;7.20;;
48613;SDS011;34408;51.426;5.444;2023-12-14T11:19:29;10.90;;;7.20;;
48613;SDS011;34408;51.426;5.444;2023-12-14T11:24:42;8.40;;;6.15;;
48613;SDS011;34408;51.426;5.444;2023-12-14T11:27:12;9.88;;;6.60;;
48613;SDS011;34408;51.426;5.444;2023-12-14T11:29:40;10.60;;;5.97;;
48613;SDS011;34408;51.426;5.444;2023-12-14T11:32:09;10.32;;;6.70;;
48613;SDS011;34408;51.426;5.444;2023-12-14T11:34:38;8.68;;;6.13;;
48613;SDS011;34408;51.426;5.444;2023-12-14T11:37:07;12.48;;;7.78;;
48613;SDS011;34408;51.426;5.444;2023-12-14T11:39:35;12.65;;;6.85;;
48613;SDS011;34408;51.426;5.444;2023-12-14T11:42:04;11.70;;;6.22;;
48613;SDS011;34408;51.426;5.444;2023-12-14T11:44:36;10.27;;;6.72;;
48613;SDS011;34408;51.426;5.444;2023-12-14T11:47:05;12.43;;;7.07;;
48613;SDS011;34408;51.426;5.444;2023-12-14T11:49:33;15.48;;;6.40;;
48613;SDS011;34408;51.426;5.444;2023-12-14T11:52:01;11.30;;;6.35;;
48613;SDS011;34408;51.426;5.444;2023-12-14T11:54:30;8.30;;;5.65;;
48613;SDS011;34408;51.426;5.444;2023-12-14T11:57:00;8.75;;;5.90;;
48613;SDS011;34408;51.426;5.444;2023-12-14T11:59:29;8.68;;;5.95;;
48613;SDS011;34408;51.426;5.444;2023-12-14T12:02:00;10.63;;;6.32;;
48613;SDS011;34408;51.426;5.444;2023-12-14T12:04:29;7.75;;;5.50;;
48613;SDS011;34408;51.426;5.444;2023-12-14T12:07:00;9.77;;;6.68;;
48613;SDS011;34408;51.426;5.444;2023-12-14T12:09:36;7.45;;;5.45;;
48613;SDS011;34408;51.426;5.444;2023-12-14T12:12:08;8.02;;;5.32;;
48613;SDS011;34408;51.426;5.444;2023-12-14T12:14:37;10.82;;;5.78;;
48613;SDS011;34408;51.426;5.444;2023-12-14T12:17:07;7.68;;;5.70;;
48613;SDS011;34408;51.426;5.444;2023-12-14T12:19:36;8.15;;;6.20;;
48613;SDS011;34408;51.426;5.444;2023-12-14T12:22:04;7.50;;;5.53;;
48613;SDS011;34408;51.426;5.444;2023-12-14T12:24:32;8.77;;;5.43;;
48613;SDS011;34408;51.426;5.444;2023-12-14T12:27:00;9.60;;;5.80;;
48613;SDS011;34408;51.426;5.444;2023-12-14T12:29:28;8.30;;;5.60;;
48613;SDS011;34408;51.426;5.444;2023-12-14T12:31:56;11.75;;;6.22;;
48613;SDS011;34408;51.426;5.444;2023-12-14T12:34:25;11.50;;;5.53;;
48613;SDS011;34408;51.426;5.444;2023-12-14T12:36:54;8.00;;;5.65;;
48613;SDS011;34408;51.426;5.444;2023-12-14T12:39:24;8.18;;;5.25;;
48613;SDS011;34408;51.426;5.444;2023-12-14T12:41:52;8.40;;;5.13;;
48613;SDS011;34408;51.426;5.444;2023-12-14T12:44:19;8.13;;;5.72;;
48613;SDS011;34408;51.426;5.444;2023-12-14T12:46:47;8.15;;;5.03;;
48613;SDS011;34408;51.426;5.444;2023-12-14T12:49:31;7.28;;;5.00;;
48613;SDS011;34408;51.426;5.444;2023-12-14T12:51:59;10.27;;;5.25;;
48613;SDS011;34408;51.426;5.444;2023-12-14T12:54:27;7.50;;;5.18;;
48613;SDS011;34408;51.426;5.444;2023-12-14T12:56:55;9.18;;;5.18;;
48613;SDS011;34408;51.426;5.444;2023-12-14T12:59:23;8.07;;;5.07;;
48613;SDS011;34408;51.426;5.444;2023-12-14T13:01:50;8.32;;;4.95;;
48613;SDS011;34408;51.426;5.444;2023-12-14T13:04:18;8.50;;;5.38;;
48613;SDS011;34408;51.426;5.444;2023-12-14T13:06:48;10.40;;;5.80;;
48613;SDS011;34408;51.426;5.444;2023-12-14T13:09:17;8.45;;;5.55;;
48613;SDS011;34408;51.426;5.444;2023-12-14T13:11:46;7.65;;;4.72;;
48613;SDS011;34408;51.426;5.444;2023-12-14T13:14:14;8.27;;;5.25;;
48613;SDS011;34408;51.426;5.444;2023-12-14T13:16:42;7.10;;;4.43;;
48613;SDS011;34408;51.426;5.444;2023-12-14T13:19:10;8.13;;;5.88;;
48613;SDS011;34408;51.426;5.444;2023-12-14T13:21:39;9.27;;;5.93;;
48613;SDS011;34408;51.426;5.444;2023-12-14T13:24:08;7.90;;;5.97;;
48613;SDS011;34408;51.426;5.444;2023-12-14T13:26:36;7.22;;;4.70;;
48613;SDS011;34408;51.426;5.444;2023-12-14T13:29:04;8.82;;;4.78;;
48613;SDS011;34408;51.426;5.444;2023-12-14T13:31:32;6.70;;;5.07;;
48613;SDS011;34408;51.426;5.444;2023-12-14T13:33:59;9.07;;;5.70;;
48613;SDS011;34408;51.426;5.444;2023-12-14T13:36:27;9.15;;;5.85;;
48613;SDS011;34408;51.426;5.444;2023-12-14T13:38:56;7.43;;;5.32;;
48613;SDS011;34408;51.426;5.444;2023-12-14T13:41:26;8.60;;;5.20;;
48613;SDS011;34408;51.426;5.444;2023-12-14T13:43:54;7.80;;;5.43;;
48613;SDS011;34408;51.426;5.444;2023-12-14T13:46:22;7.05;;;5.43;;
48613;SDS011;34408;51.426;5.444;2023-12-14T13:48:50;8.13;;;5.10;;
48613;SDS011;34408;51.426;5.444;2023-12-14T13:51:19;8.07;;;5.65;;
48613;SDS011;34408;51.426;5.444;2023-12-14T13:53:47;7.03;;;5.22;;
48613;SDS011;34408;51.426;5.444;2023-12-14T13:56:15;6.93;;;5.07;;
48613;SDS011;34408;51.426;5.444;2023-12-14T13:58:44;9.80;;;5.05;;
48613;SDS011;34408;51.426;5.444;2023-12-14T14:01:12;8.18;;;5.55;;
48613;SDS011;34408;51.426;5.444;2023-12-14T14:03:41;6.80;;;5.07;;
48613;SDS011;34408;51.426;5.444;2023-12-14T14:06:10;11.18;;;5.45;;
48613;SDS011;34408;51.426;5.444;2023-12-14T14:08:38;7.72;;;5.57;;
48613;SDS011;34408;51.426;5.444;2023-12-14T14:11:06;7.75;;;5.05;;
48613;SDS011;34408;51.426;5.444;2023-12-14T14:13:36;7.63;;;5.38;;
48613;SDS011;34408;51.426;5.444;2023-12-14T14:16:06;8.55;;;5.97;;
48613;SDS011;34408;51.426;5.444;2023-12-14T14:18:34;7.57;;;4.72;;
48613;SDS011;34408;51.426;5.444;2023-12-14T14:21:02;7.97;;;5.55;;
48613;SDS011;34408;51.426;5.444;2023-12-14T14:23:34;7.50;;;4.95;;
48613;SDS011;34408;51.426;5.444;2023-12-14T14:26:01;8.75;;;5.30;;
48613;SDS011;34408;51.426;5.444;2023-12-14T14:28:29;7.47;;;4.82;;
48613;SDS011;34408;51.426;5.444;2023-12-14T14:30:57;10.30;;;5.35;;
48613;SDS011;34408;51.426;5.444;2023-12-14T14:33:27;7.35;;;5.32;;
48613;SDS011;34408;51.426;5.444;2023-12-14T14:35:55;7.93;;;5.55;;
48613;SDS011;34408;51.426;5.444;2023-12-14T14:38:22;9.10;;;5.40;;
48613;SDS011;34408;51.426;5.444;2023-12-14T14:40:50;6.65;;;5.40;;
48613;SDS011;34408;51.426;5.444;2023-12-14T14:43:18;8.10;;;5.03;;
48613;SDS011;34408;51.426;5.444;2023-12-14T14:45:47;7.82;;;5.68;;
48613;SDS011;34408;51.426;5.444;2023-12-14T14:48:15;7.25;;;5.78;;
48613;SDS011;34408;51.426;5.444;2023-12-14T14:50:45;7.30;;;5.38;;
48613;SDS011;34408;51.426;5.444;2023-12-14T14:53:12;6.90;;;5.03;;
48613;SDS011;34408;51.426;5.444;2023-12-14T14:55:40;8.60;;;5.53;;
48613;SDS011;34408;51.426;5.444;2023-12-14T14:58:08;8.77;;;5.30;;
48613;SDS011;34408;51.426;5.444;2023-12-14T15:00:36;8.90;;;5.60;;
48613;SDS011;34408;51.426;5.444;2023-12-14T15:03:05;8.55;;;5.97;;
48613;SDS011;34408;51.426;5.444;2023-12-14T15:05:36;8.73;;;5.38;;
48613;SDS011;34408;51.426;5.444;2023-12-14T15:08:05;9.50;;;6.85;;
48613;SDS011;34408;51.426;5.444;2023-12-14T15:10:33;10.38;;;5.75;;
48613;SDS011;34408;51.426;5.444;2023-12-14T15:13:01;10.75;;;6.35;;
48613;SDS011;34408;51.426;5.444;2023-12-14T15:15:29;7.20;;;5.03;;
48613;SDS011;34408;51.426;5.444;2023-12-14T15:17:58;12.40;;;5.57;;
48613;SDS011;34408;51.426;5.444;2023-12-14T15:20:26;9.93;;;5.75;;
48613;SDS011;34408;51.426;5.444;2023-12-14T15:22:54;10.20;;;6.60;;
48613;SDS011;34408;51.426;5.444;2023-12-14T15:25:23;8.18;;;5.57;;
48613;SDS011;34408;51.426;5.444;2023-12-14T15:27:51;7.57;;;5.80;;
48613;SDS011;34408;51.426;5.444;2023-12-14T15:30:19;8.02;;;5.43;;
48613;SDS011;34408;51.426;5.444;2023-12-14T15:32:46;7.65;;;5.07;;
48613;SDS011;34408;51.426;5.444;2023-12-14T15:35:15;8.35;;;5.55;;
48613;SDS011;34408;51.426;5.444;2023-12-14T15:37:42;10.35;;;5.43;;
48613;SDS011;34408;51.426;5.444;2023-12-14T15:40:10;8.90;;;5.82;;
48613;SDS011;34408;51.426;5.444;2023-12-14T15:42:39;7.50;;;5.32;;
48613;SDS011;34408;51.426;5.444;2023-12-14T15:45:08;7.22;;;5.35;;
48613;SDS011;34408;51.426;5.444;2023-12-14T15:47:36;8.30;;;5.45;;
48613;SDS011;34408;51.426;5.444;2023-12-14T15:50:04;9.90;;;6.30;;
48613;SDS011;34408;51.426;5.444;2023-12-14T15:52:34;9.60;;;6.28;;
48613;SDS011;34408;51.426;5.444;2023-12-14T15:55:02;9.90;;;5.78;;
48613;SDS011;34408;51.426;5.444;2023-12-14T15:57:33;7.85;;;5.68;;
48613;SDS011;34408;51.426;5.444;2023-12-14T16:00:02;7.30;;;5.18;;
48613;SDS011;34408;51.426;5.444;2023-12-14T16:02:31;10.27;;;5.75;;
48613;SDS011;34408;51.426;5.444;2023-12-14T16:05:00;8.90;;;5.45;;
48613;SDS011;34408;51.426;5.444;2023-12-14T16:07:28;8.07;;;5.30;;
48613;SDS011;34408;51.426;5.444;2023-12-14T16:09:56;10.48;;;6.03;;
48613;SDS011;34408;51.426;5.444;2023-12-14T16:12:24;7.53;;;5.43;;
48613;SDS011;34408;51.426;5.444;2023-12-14T16:14:52;6.47;;;5.07;;
48613;SDS011;34408;51.426;5.444;2023-12-14T16:17:24;9.05;;;5.22;;
48613;SDS011;34408;51.426;5.444;2023-12-14T16:19:52;9.43;;;5.75;;
48613;SDS011;34408;51.426;5.444;2023-12-14T16:22:20;10.38;;;5.43;;
48613;SDS011;34408;51.426;5.444;2023-12-14T16:24:48;10.48;;;5.55;;
48613;SDS011;34408;51.426;5.444;2023-12-14T16:27:15;10.73;;;6.07;;
48613;SDS011;34408;51.426;5.444;2023-12-14T16:29:45;10.25;;;5.82;;
48613;SDS011;34408;51.426;5.444;2023-12-14T16:32:14;10.73;;;6.13;;
48613;SDS011;34408;51.426;5.444;2023-12-14T16:34:44;9.55;;;6.20;;
48613;SDS011;34408;51.426;5.444;2023-12-14T16:37:12;9.05;;;6.25;;
48613;SDS011;34408;51.426;5.444;2023-12-14T16:39:40;9.60;;;5.93;;
48613;SDS011;34408;51.426;5.444;2023-12-14T16:42:08;9.60;;;6.43;;
48613;SDS011;34408;51.426;5.444;2023-12-14T16:44:36;9.30;;;6.25;;
48613;SDS011;34408;51.426;5.444;2023-12-14T16:47:05;8.27;;;5.43;;
48613;SDS011;34408;51.426;5.444;2023-12-14T16:49:36;9.10;;;6.20;;
48613;SDS011;34408;51.426;5.444;2023-12-14T16:52:05;9.10;;;5.93;;
48613;SDS011;34408;51.426;5.444;2023-12-14T16:54:34;12.35;;;6.28;;
48613;SDS011;34408;51.426;5.444;2023-12-14T16:57:02;8.77;;;6.00;;
48613;SDS011;34408;51.426;5.444;2023-12-14T16:59:30;12.75;;;7.00;;
48613;SDS011;34408;51.426;5.444;2023-12-14T17:01:58;9.82;;;6.22;;
48613;SDS011;34408;51.426;5.444;2023-12-14T17:04:26;9.63;;;6.00;;
48613;SDS011;34408;51.426;5.444;2023-12-14T17:06:53;10.57;;;6.97;;
48613;SDS011;34408;51.426;5.444;2023-12-14T17:09:23;10.85;;;6.00;;
48613;SDS011;34408;51.426;5.444;2023-12-14T17:11:53;9.30;;;6.18;;
48613;SDS011;34408;51.426;5.444;2023-12-14T17:14:21;11.88;;;6.70;;
48613;SDS011;34408;51.426;5.444;2023-12-14T17:16:49;7.75;;;5.80;;
48613;SDS011;34408;51.426;5.444;2023-12-14T17:19:19;11.70;;;5.30;;
48613;SDS011;34408;51.426;5.444;2023-12-14T17:21:49;7.30;;;5.10;;
48613;SDS011;34408;51.426;5.444;2023-12-14T17:24:17;8.30;;;5.35;;
48613;SDS011;34408;51.426;5.444;2023-12-14T17:26:46;10.75;;;6.07;;
48613;SDS011;34408;51.426;5.444;2023-12-14T17:29:14;8.18;;;5.65;;
48613;SDS011;34408;51.426;5.444;2023-12-14T17:31:42;9.38;;;6.03;;
48613;SDS011;34408;51.426;5.444;2023-12-14T17:34:10;10.13;;;6.18;;
48613;SDS011;34408;51.426;5.444;2023-12-14T17:36:38;9.18;;;5.88;;
48613;SDS011;34408;51.426;5.444;2023-12-14T17:39:06;9.60;;;6.13;;
48613;SDS011;34408;51.426;5.444;2023-12-14T17:41:34;14.38;;;6.50;;
48613;SDS011;34408;51.426;5.444;2023-12-14T17:44:03;8.95;;;5.93;;
48613;SDS011;34408;51.426;5.444;2023-12-14T17:46:31;11.50;;;6.40;;
48613;SDS011;34408;51.426;5.444;2023-12-14T17:48:59;11.45;;;6.70;;
48613;SDS011;34408;51.426;5.444;2023-12-14T17:51:30;8.95;;;6.38;;
48613;SDS011;34408;51.426;5.444;2023-12-14T17:53:58;10.30;;;6.32;;
48613;SDS011;34408;51.426;5.444;2023-12-14T17:56:26;11.38;;;6.57;;
48613;SDS011;34408;51.426;5.444;2023-12-14T17:58:54;9.60;;;5.78;;
48613;SDS011;34408;51.426;5.444;2023-12-14T18:01:23;12.65;;;6.75;;
48613;SDS011;34408;51.426;5.444;2023-12-14T18:03:51;10.05;;;6.75;;
48613;SDS011;34408;51.426;5.444;2023-12-14T18:06:19;10.68;;;6.85;;
48613;SDS011;34408;51.426;5.444;2023-12-14T18:08:47;11.35;;;7.00;;
48613;SDS011;34408;51.426;5.444;2023-12-14T18:11:15;10.27;;;6.13;;
48613;SDS011;34408;51.426;5.444;2023-12-14T18:13:43;13.63;;;6.45;;
48613;SDS011;34408;51.426;5.444;2023-12-14T18:16:11;9.43;;;6.22;;
48613;SDS011;34408;51.426;5.444;2023-12-14T18:18:40;12.35;;;6.70;;
48613;SDS011;34408;51.426;5.444;2023-12-14T18:21:08;11.50;;;7.18;;
48613;SDS011;34408;51.426;5.444;2023-12-14T18:23:36;11.40;;;6.80;;
48613;SDS011;34408;51.426;5.444;2023-12-14T18:26:04;12.63;;;7.07;;
48613;SDS011;34408;51.426;5.444;2023-12-14T18:28:32;11.40;;;6.40;;
48613;SDS011;34408;51.426;5.444;2023-12-14T18:31:00;11.93;;;6.80;;
48613;SDS011;34408;51.426;5.444;2023-12-14T18:33:28;11.45;;;6.88;;
48613;SDS011;34408;51.426;5.444;2023-12-14T18:35:57;12.68;;;7.00;;
48613;SDS011;34408;51.426;5.444;2023-12-14T18:38:25;14.50;;;7.00;;
48613;SDS011;34408;51.426;5.444;2023-12-14T18:40:53;9.65;;;7.03;;
48613;SDS011;34408;51.426;5.444;2023-12-14T18:43:20;14.52;;;7.25;;
48613;SDS011;34408;51.426;5.444;2023-12-14T18:45:48;11.80;;;7.38;;
48613;SDS011;34408;51.426;5.444;2023-12-14T18:48:16;10.93;;;6.93;;
48613;SDS011;34408;51.426;5.444;2023-12-14T18:50:44;13.25;;;7.47;;
48613;SDS011;34408;51.426;5.444;2023-12-14T18:53:13;11.48;;;7.40;;
48613;SDS011;34408;51.426;5.444;2023-12-14T18:55:41;11.15;;;6.65;;
48613;SDS011;34408;51.426;5.444;2023-12-14T18:58:09;11.88;;;7.75;;
48613;SDS011;34408;51.426;5.444;2023-12-14T19:00:38;12.32;;;7.65;;
48613;SDS011;34408;51.426;5.444;2023-12-14T19:03:09;12.15;;;6.47;;
48613;SDS011;34408;51.426;5.444;2023-12-14T19:05:37;11.68;;;6.95;;
48613;SDS011;34408;51.426;5.444;2023-12-14T19:08:05;14.32;;;7.40;;
48613;SDS011;34408;51.426;5.444;2023-12-14T19:10:34;11.68;;;6.72;;
48613;SDS011;34408;51.426;5.444;2023-12-14T19:13:02;11.23;;;6.53;;
48613;SDS011;34408;51.426;5.444;2023-12-14T19:15:31;13.13;;;7.18;;
48613;SDS011;34408;51.426;5.444;2023-12-14T19:17:59;10.13;;;7.22;;
48613;SDS011;34408;51.426;5.444;2023-12-14T19:20:28;11.38;;;6.35;;
48613;SDS011;34408;51.426;5.444;2023-12-14T19:22:55;10.63;;;6.57;;
48613;SDS011;34408;51.426;5.444;2023-12-14T19:25:25;11.43;;;7.07;;
48613;SDS011;34408;51.426;5.444;2023-12-14T19:27:54;8.98;;;6.72;;
48613;SDS011;34408;51.426;5.444;2023-12-14T19:30:22;13.20;;;7.03;;
48613;SDS011;34408;51.426;5.444;2023-12-14T19:32:50;12.75;;;6.30;;
48613;SDS011;34408;51.426;5.444;2023-12-14T19:35:18;12.45;;;6.35;;
48613;SDS011;34408;51.426;5.444;2023-12-14T19:37:46;14.95;;;7.00;;
48613;SDS011;34408;51.426;5.444;2023-12-14T19:40:15;11.25;;;7.07;;
48613;SDS011;34408;51.426;5.444;2023-12-14T19:42:43;10.48;;;6.40;;
48613;SDS011;34408;51.426;5.444;2023-12-14T19:45:12;9.20;;;5.97;;